createdAt,value
2022-08-22T00:00:10.193Z,80.50
2022-08-22T00:02:54.635Z,81.60
2022-08-22T00:02:57.731Z,82.20
2022-08-22T00:03:15.862Z,80.20
2022-08-22T00:05:58.279Z,79.90
2022-08-22T00:09:03.030Z,79.40
2022-08-22T00:11:43.967Z,79.50
2022-08-22T00:14:30.757Z,79.40
2022-08-22T00:17:16.852Z,79.40
2022-08-22T00:20:05.876Z,79.30
2022-08-22T00:22:35.511Z,79.50
2022-08-22T00:25:24.737Z,79.60
2022-08-22T00:28:06.579Z,79.70
2022-08-22T00:30:42.840Z,79.80
2022-08-22T00:33:23.661Z,79.80
2022-08-22T00:36:06.713Z,79.80
2022-08-22T00:38:43.875Z,79.80
2022-08-22T00:41:23.801Z,79.80
2022-08-22T00:44:09.044Z,79.90
2022-08-22T00:46:55.265Z,80.20
2022-08-22T00:49:36.836Z,80.50
2022-08-22T00:52:51.568Z,80.40
2022-08-22T00:55:39.612Z,80.90
2022-08-22T00:58:35.424Z,80.70
2022-08-22T01:01:11.053Z,80.80
2022-08-22T01:03:49.138Z,81.10
2022-08-22T01:06:52.081Z,81.30
2022-08-22T01:09:30.974Z,81.80
2022-08-22T01:11:57.252Z,82.10
2022-08-22T01:14:37.423Z,82.20
2022-08-22T01:17:52.838Z,82.50
2022-08-22T01:20:57.854Z,82.90
2022-08-22T01:23:51.765Z,83.00
2022-08-22T01:26:51.361Z,82.60
2022-08-22T01:29:54.990Z,82.40
2022-08-22T01:32:48.944Z,82.90
2022-08-22T01:36:00.697Z,82.90
2022-08-22T01:38:47.023Z,83.00
2022-08-22T01:41:48.625Z,83.00
2022-08-22T01:44:45.324Z,83.20
2022-08-22T01:47:47.604Z,83.20
2022-08-22T01:50:35.654Z,83.00
2022-08-22T01:53:30.042Z,83.50
2022-08-22T01:56:18.792Z,83.60
2022-08-22T01:59:11.401Z,83.70
2022-08-22T02:01:49.894Z,83.60
2022-08-22T02:04:33.781Z,83.30
2022-08-22T02:07:31.726Z,83.10
2022-08-22T02:10:20.844Z,83.00
2022-08-22T02:13:12.345Z,83.20
2022-08-22T02:15:46.573Z,83.30
2022-08-22T02:18:23.952Z,83.20
2022-08-22T02:21:15.154Z,83.30
2022-08-22T02:23:56.426Z,83.40
2022-08-22T02:26:38.878Z,83.10
2022-08-22T02:29:20.455Z,82.90
2022-08-22T02:32:18.236Z,82.90
2022-08-22T02:34:52.831Z,82.80
2022-08-22T02:37:37.170Z,82.50
2022-08-22T02:40:06.337Z,82.30
2022-08-22T02:43:04.672Z,82.30
2022-08-22T02:45:36.692Z,82.20
2022-08-22T02:48:44.736Z,82.60
2022-08-22T02:51:30.635Z,83.30
2022-08-22T02:54:24.676Z,83.20
2022-08-22T02:57:14.201Z,83.10
2022-08-22T03:00:27.672Z,83.20
2022-08-22T03:02:59.244Z,83.00
2022-08-22T03:05:25.589Z,82.90
2022-08-22T03:08:25.427Z,83.00
2022-08-22T03:11:15.887Z,83.30
2022-08-22T03:14:21.416Z,83.30
2022-08-22T03:16:54.304Z,83.30
2022-08-22T03:19:39.336Z,83.00
2022-08-22T03:22:19.676Z,83.10
2022-08-22T03:25:26.346Z,83.20
2022-08-22T03:28:03.086Z,83.50
2022-08-22T03:30:35.723Z,83.40
2022-08-22T03:33:22.745Z,83.50
2022-08-22T03:36:01.609Z,83.70
2022-08-22T03:38:48.161Z,83.60
2022-08-22T03:41:55.066Z,83.70
2022-08-22T03:44:30.344Z,83.80
2022-08-22T03:47:31.292Z,83.60
2022-08-22T03:50:44.272Z,83.80
2022-08-22T03:53:28.825Z,83.70
2022-08-22T03:56:29.648Z,84.50
2022-08-22T03:59:09.859Z,83.90
2022-08-22T04:02:42.193Z,83.80
2022-08-22T04:05:14.594Z,83.90
2022-08-22T04:07:42.783Z,83.80
2022-08-22T04:10:38.866Z,83.80
2022-08-22T04:13:32.543Z,84.20
2022-08-22T04:16:44.258Z,84.20
2022-08-22T04:19:31.580Z,84.40
2022-08-22T04:22:09.369Z,84.30
2022-08-22T04:24:52.321Z,84.30
2022-08-22T04:27:49.165Z,84.40
2022-08-22T04:30:40.125Z,84.70
2022-08-22T04:33:27.996Z,84.70
2022-08-22T04:36:00.206Z,85.00
2022-08-22T04:38:54.227Z,85.00
2022-08-22T04:41:52.377Z,85.30
2022-08-22T04:44:43.120Z,85.50
2022-08-22T04:47:36.181Z,85.70
2022-08-22T04:50:24.044Z,85.80
2022-08-22T04:52:50.053Z,86.00
2022-08-22T04:55:32.181Z,85.90
2022-08-22T04:58:33.039Z,86.20
2022-08-22T05:01:21.091Z,86.50
2022-08-22T05:04:14.303Z,86.50
2022-08-22T05:06:45.735Z,86.70
2022-08-22T05:09:16.915Z,86.80
2022-08-22T05:11:46.589Z,86.80
2022-08-22T05:14:29.752Z,86.50
2022-08-22T05:16:57.387Z,87.00
2022-08-22T05:19:32.755Z,87.10
2022-08-22T05:22:00.186Z,87.20
2022-08-22T05:24:39.052Z,87.10
2022-08-22T05:27:30.642Z,87.30
2022-08-22T05:30:00.009Z,87.30
2022-08-22T05:32:40.042Z,86.90
2022-08-22T05:35:08.673Z,86.70
2022-08-22T05:37:42.568Z,86.70
2022-08-22T05:40:18.565Z,86.70
2022-08-22T05:42:45.423Z,86.70
2022-08-22T05:45:14.904Z,86.90
2022-08-22T05:48:18.372Z,86.80
2022-08-22T05:50:50.984Z,86.80
2022-08-22T05:53:23.829Z,86.60
2022-08-22T05:56:17.878Z,86.80
2022-08-22T05:59:09.914Z,87.10
2022-08-22T06:01:46.671Z,87.10
2022-08-22T06:04:24.884Z,87.70
2022-08-22T06:07:02.709Z,86.90
2022-08-22T06:10:00.451Z,86.70
2022-08-22T06:12:32.541Z,87.30
2022-08-22T06:15:00.599Z,86.50
2022-08-22T06:17:35.135Z,86.50
2022-08-22T06:20:05.128Z,86.60
2022-08-22T06:22:41.242Z,86.40
2022-08-22T06:25:18.148Z,86.30
2022-08-22T06:27:47.295Z,86.00
2022-08-22T06:30:15.431Z,85.80
2022-08-22T06:32:59.806Z,85.80
2022-08-22T06:35:59.351Z,85.70
2022-08-22T06:39:04.968Z,85.20
2022-08-22T06:41:36.469Z,85.00
2022-08-22T06:44:04.884Z,85.00
2022-08-22T06:46:35.577Z,85.10
2022-08-22T06:49:04.210Z,85.30
2022-08-22T06:51:31.268Z,85.20
2022-08-22T06:54:01.532Z,84.90
2022-08-22T06:56:41.078Z,84.80
2022-08-22T06:59:18.012Z,83.60
2022-08-22T07:02:30.678Z,82.00
2022-08-22T07:04:57.470Z,81.20
2022-08-22T07:07:26.175Z,80.90
2022-08-22T07:09:56.035Z,80.20
2022-08-22T07:12:36.905Z,79.50
2022-08-22T07:15:36.450Z,79.00
2022-08-22T07:18:25.605Z,78.60
2022-08-22T07:21:03.738Z,78.50
2022-08-22T07:23:40.082Z,77.90
2022-08-22T07:26:43.434Z,77.20
2022-08-22T07:29:34.907Z,75.90
2022-08-22T07:32:19.805Z,74.20
2022-08-22T07:34:54.967Z,69.70
2022-08-22T07:37:49.635Z,65.30
2022-08-22T07:40:33.097Z,61.90
2022-08-22T07:43:31.952Z,60.10
2022-08-22T07:46:00.184Z,58.60
2022-08-22T07:48:28.622Z,58.20
2022-08-22T07:51:32.995Z,56.90
2022-08-22T07:54:05.446Z,55.40
2022-08-22T07:56:45.652Z,53.60
2022-08-22T07:59:18.933Z,52.80
2022-08-22T08:01:52.674Z,51.50
2022-08-22T08:04:26.309Z,50.20
2022-08-22T08:06:56.764Z,48.90
2022-08-22T08:09:25.740Z,48.70
2022-08-22T08:11:53.606Z,48.60
2022-08-22T08:14:22.572Z,47.00
2022-08-22T08:17:02.712Z,46.90
2022-08-22T08:19:36.182Z,46.00
2022-08-22T08:22:04.400Z,45.90
2022-08-22T08:24:37.630Z,44.90
2022-08-22T08:27:34.130Z,43.60
2022-08-22T08:30:17.910Z,42.80
2022-08-22T08:32:59.609Z,42.70
2022-08-22T08:36:02.585Z,42.00
2022-08-22T08:38:37.820Z,40.30
2022-08-22T08:41:25.898Z,40.20
2022-08-22T08:44:21.183Z,40.00
2022-08-22T08:47:09.320Z,39.90
2022-08-22T08:49:57.459Z,40.60
2022-08-22T08:52:39.024Z,39.70
2022-08-22T08:58:33.525Z,39.90
2022-08-22T09:01:34.215Z,39.40
2022-08-22T09:04:31.209Z,39.30
2022-08-22T09:07:15.774Z,41.00
2022-08-22T09:10:13.176Z,40.70
2022-08-22T09:13:11.686Z,40.90
2022-08-22T09:15:58.608Z,40.20
2022-08-22T09:18:59.192Z,39.40
2022-08-22T09:22:14.179Z,39.30
2022-08-22T09:25:06.118Z,39.20
2022-08-22T09:27:40.505Z,38.90
2022-08-22T09:30:16.920Z,38.70
2022-08-22T09:33:01.724Z,38.10
2022-08-22T09:35:37.646Z,37.40
2022-08-22T09:38:24.532Z,36.10
2022-08-22T09:40:16.684Z,39.90
2022-08-22T09:41:03.542Z,35.50
2022-08-22T09:43:45.026Z,36.30
2022-08-22T09:46:32.085Z,37.20
2022-08-22T09:49:12.700Z,39.20
2022-08-22T09:51:56.091Z,38.90
2022-08-22T09:54:42.202Z,37.80
2022-08-22T09:57:15.296Z,35.00
2022-08-22T09:59:58.108Z,37.10
2022-08-22T10:02:28.075Z,38.00
2022-08-22T10:05:04.134Z,37.70
2022-08-22T10:07:52.674Z,35.30
2022-08-22T10:10:38.025Z,34.50
2022-08-22T10:13:23.135Z,34.30
2022-08-22T10:16:13.217Z,32.80
2022-08-22T10:19:00.866Z,31.60
2022-08-22T10:21:52.675Z,31.10
2022-08-22T10:24:43.952Z,31.40
2022-08-22T10:27:22.687Z,32.30
2022-08-22T10:30:11.099Z,31.60
2022-08-22T10:33:01.516Z,31.70
2022-08-22T10:36:05.062Z,34.10
2022-08-22T10:38:54.022Z,35.50
2022-08-22T10:41:58.105Z,36.00
2022-08-22T10:44:36.105Z,34.60
2022-08-22T10:47:08.099Z,33.60
2022-08-22T10:49:52.814Z,32.40
2022-08-22T10:52:25.622Z,32.90
2022-08-22T10:54:58.479Z,31.20
2022-08-22T10:57:52.973Z,32.00
2022-08-22T11:00:46.346Z,31.60
2022-08-22T11:03:34.178Z,31.40
2022-08-22T11:06:10.287Z,31.40
2022-08-22T11:08:51.033Z,32.30
2022-08-22T11:11:47.487Z,32.20
2022-08-22T11:14:40.554Z,33.30
2022-08-22T11:17:53.912Z,33.30
2022-08-22T11:20:46.790Z,33.20
2022-08-22T11:23:40.165Z,33.10
2022-08-22T11:26:33.576Z,32.40
2022-08-22T11:29:23.342Z,31.40
2022-08-22T11:37:48.955Z,29.40
2022-08-22T11:40:29.829Z,28.30
2022-08-22T11:43:04.998Z,27.90
2022-08-22T11:45:40.324Z,27.90
2022-08-22T11:48:12.079Z,28.80
2022-08-22T11:50:58.851Z,29.00
2022-08-22T11:53:53.394Z,29.90
2022-08-22T11:56:36.502Z,30.40
2022-08-22T11:59:11.900Z,31.40
2022-08-22T12:01:56.147Z,31.60
2022-08-22T12:04:47.276Z,33.30
2022-08-22T12:07:30.772Z,33.10
2022-08-22T12:10:16.662Z,32.20
2022-08-22T12:13:12.556Z,32.70
2022-08-22T12:16:00.295Z,33.00
2022-08-22T12:18:53.025Z,33.90
2022-08-22T12:21:41.477Z,34.30
2022-08-22T12:24:35.648Z,34.40
2022-08-22T12:27:28.914Z,34.10
2022-08-22T12:30:13.946Z,34.10
2022-08-22T12:33:02.743Z,34.20
2022-08-22T12:35:48.911Z,33.90
2022-08-22T12:38:35.974Z,33.50
2022-08-22T12:41:28.115Z,33.30
2022-08-22T12:44:29.937Z,35.60
2022-08-22T12:47:34.271Z,34.60
2022-08-22T12:50:12.426Z,34.00
2022-08-22T12:53:09.857Z,33.80
2022-08-22T12:55:45.405Z,32.70
2022-08-22T12:58:33.967Z,31.00
2022-08-22T13:01:06.465Z,30.00
2022-08-22T13:03:41.261Z,30.40
2022-08-22T13:06:35.873Z,29.90
2022-08-22T13:09:10.289Z,29.90
2022-08-22T13:11:40.500Z,30.00
2022-08-22T13:14:09.724Z,29.90
2022-08-22T13:16:51.213Z,29.60
2022-08-22T13:19:24.843Z,29.50
2022-08-22T13:22:03.212Z,29.10
2022-08-22T13:24:52.363Z,28.00
2022-08-22T13:27:32.276Z,28.70
2022-08-22T13:30:06.535Z,29.50
2022-08-22T13:32:44.493Z,29.50
2022-08-22T13:35:23.913Z,28.10
2022-08-22T13:37:53.203Z,28.90
2022-08-22T13:40:30.289Z,29.70
2022-08-22T13:43:07.133Z,29.20
2022-08-22T13:45:35.825Z,29.80
2022-08-22T13:48:15.871Z,29.50
2022-08-22T13:51:00.713Z,29.70
2022-08-22T13:59:01.165Z,29.60
2022-08-22T14:01:36.993Z,30.00
2022-08-22T14:04:32.298Z,30.80
2022-08-22T14:07:02.956Z,30.20
2022-08-22T14:09:45.354Z,31.60
2022-08-22T14:12:50.350Z,30.10
2022-08-22T14:15:26.222Z,31.00
2022-08-22T14:18:12.757Z,30.50
2022-08-22T14:20:41.662Z,32.10
2022-08-22T14:23:16.431Z,33.00
2022-08-22T14:25:44.125Z,33.70
2022-08-22T14:28:40.247Z,34.40
2022-08-22T14:31:12.132Z,33.50
2022-08-22T14:33:51.624Z,34.40
2022-08-22T14:36:23.052Z,35.00
2022-08-22T14:38:56.068Z,35.60
2022-08-22T14:41:22.529Z,34.50
2022-08-22T14:43:56.328Z,36.00
2022-08-22T14:46:49.439Z,36.60
2022-08-22T14:49:18.670Z,36.10
2022-08-22T14:51:51.567Z,36.60
2022-08-22T14:54:22.477Z,36.40
2022-08-22T14:56:55.912Z,37.60
2022-08-22T14:59:35.310Z,38.00
2022-08-22T15:02:09.678Z,38.80
2022-08-22T15:04:44.079Z,37.30
2022-08-22T15:07:29.136Z,38.20
2022-08-22T15:10:22.632Z,38.50
2022-08-22T15:12:53.400Z,38.90
2022-08-22T15:15:31.980Z,38.30
2022-08-22T15:17:59.056Z,37.70
2022-08-22T15:20:30.147Z,38.60
2022-08-22T15:23:10.238Z,39.00
2022-08-22T15:25:40.910Z,39.00
2022-08-22T15:28:14.245Z,37.50
2022-08-22T15:31:03.563Z,37.50
2022-08-22T15:33:40.052Z,37.90
2022-08-22T15:36:15.813Z,37.40
2022-08-22T15:38:45.808Z,38.40
2022-08-22T15:41:37.027Z,38.60
2022-08-22T15:44:14.933Z,39.00
2022-08-22T15:47:01.664Z,39.40
2022-08-22T15:49:34.310Z,39.00
2022-08-22T15:52:08.999Z,39.50
2022-08-22T15:54:52.587Z,39.60
2022-08-22T15:57:35.353Z,39.60
2022-08-22T16:00:12.187Z,39.30
2022-08-22T16:02:55.430Z,39.20
2022-08-22T16:05:34.266Z,39.60
2022-08-22T16:08:06.459Z,39.80
2022-08-22T16:10:49.632Z,39.40
2022-08-22T16:13:31.381Z,39.40
2022-08-22T16:16:53.111Z,38.70
2022-08-22T16:19:22.861Z,39.30
2022-08-22T16:21:54.764Z,39.10
2022-08-22T16:24:23.837Z,39.80
2022-08-22T16:26:51.084Z,40.00
2022-08-22T16:29:20.338Z,40.30
2022-08-22T16:31:52.181Z,39.60
2022-08-22T16:34:23.427Z,40.10
2022-08-22T16:37:14.204Z,40.40
2022-08-22T16:40:00.418Z,40.40
2022-08-22T16:43:13.043Z,40.70
2022-08-22T16:45:44.736Z,40.80
2022-08-22T16:48:16.573Z,40.50
2022-08-22T16:50:42.979Z,41.20
2022-08-22T16:53:11.042Z,40.40
2022-08-22T16:55:39.159Z,40.80
2022-08-22T16:58:56.265Z,41.70
2022-08-22T17:01:47.864Z,42.20
2022-08-22T17:05:01.853Z,43.20
2022-08-22T17:07:57.229Z,44.10
2022-08-22T17:10:48.503Z,44.40
2022-08-22T17:13:41.046Z,44.80
2022-08-22T17:16:36.451Z,45.90
2022-08-22T17:19:15.713Z,45.80
2022-08-22T17:21:53.832Z,46.50
2022-08-22T17:24:46.428Z,46.20
2022-08-22T17:27:34.339Z,46.10
2022-08-22T17:30:06.413Z,46.80
2022-08-22T17:32:32.801Z,47.20
2022-08-22T17:35:25.773Z,47.00
2022-08-22T17:38:34.784Z,47.30
2022-08-22T17:41:31.768Z,47.80
2022-08-22T17:44:01.207Z,48.40
2022-08-22T17:46:38.635Z,48.90
2022-08-22T17:49:46.008Z,48.80
2022-08-22T17:52:27.603Z,49.40
2022-08-22T17:55:12.372Z,49.70
2022-08-22T17:58:02.161Z,49.60
2022-08-22T18:00:34.029Z,50.10
2022-08-22T18:03:14.423Z,49.90
2022-08-22T18:05:52.506Z,50.00
2022-08-22T18:11:40.227Z,50.80
2022-08-22T18:14:23.363Z,51.20
2022-08-22T18:16:55.703Z,51.60
2022-08-22T18:19:44.101Z,51.40
2022-08-22T18:22:25.684Z,51.70
2022-08-22T18:25:16.902Z,52.00
2022-08-22T18:28:01.698Z,52.40
2022-08-22T18:30:52.128Z,51.70
2022-08-22T18:33:26.454Z,52.80
2022-08-22T18:36:19.361Z,53.20
2022-08-22T18:39:20.000Z,53.90
2022-08-22T18:42:01.589Z,54.20
2022-08-22T18:44:33.673Z,54.60
2022-08-22T18:47:24.347Z,55.10
2022-08-22T18:49:56.128Z,55.30
2022-08-22T18:52:25.465Z,56.00
2022-08-22T18:55:22.914Z,56.40
2022-08-22T18:58:10.855Z,56.80
2022-08-22T19:01:18.304Z,57.30
2022-08-22T19:04:04.698Z,57.40
2022-08-22T19:06:45.987Z,58.50
2022-08-22T19:09:13.628Z,58.70
2022-08-22T19:12:01.313Z,57.90
2022-08-22T19:15:05.176Z,60.20
2022-08-22T19:17:59.056Z,61.30
2022-08-22T19:20:49.765Z,60.70
2022-08-22T19:23:39.823Z,60.70
2022-08-22T19:26:27.905Z,61.00
2022-08-22T19:29:10.140Z,61.50
2022-08-22T19:31:42.289Z,62.00
2022-08-22T19:34:32.726Z,62.20
2022-08-22T19:37:11.105Z,63.10
2022-08-22T19:40:09.188Z,63.90
2022-08-22T19:42:39.290Z,64.20
2022-08-22T19:45:28.405Z,64.50
2022-08-22T19:48:07.042Z,65.10
2022-08-22T19:50:36.257Z,65.10
2022-08-22T19:53:06.643Z,65.50
2022-08-22T19:55:38.498Z,66.10
2022-08-22T19:58:16.989Z,66.60
2022-08-22T20:01:25.799Z,67.10
2022-08-22T20:04:07.867Z,67.40
2022-08-22T20:06:53.378Z,67.50
2022-08-22T20:09:25.686Z,68.00
2022-08-22T20:12:15.143Z,68.00
2022-08-22T20:14:45.607Z,68.90
2022-08-22T20:17:23.868Z,69.10
2022-08-22T20:20:19.704Z,69.90
2022-08-22T20:23:10.271Z,70.00
2022-08-22T20:25:50.687Z,70.80
2022-08-22T20:28:46.816Z,71.50
2022-08-22T20:31:23.889Z,71.20
2022-08-22T20:34:01.248Z,71.10
2022-08-22T20:36:30.794Z,71.10
2022-08-22T20:39:06.993Z,71.10
2022-08-22T20:41:39.097Z,71.30
2022-08-22T20:44:13.414Z,71.10
2022-08-22T20:46:53.677Z,71.20
2022-08-22T20:49:41.984Z,71.40
2022-08-22T20:52:33.148Z,71.60
2022-08-22T20:55:02.484Z,71.50
2022-08-22T20:57:31.229Z,71.30
2022-08-22T21:00:12.518Z,71.20
2022-08-22T21:02:44.247Z,71.30
2022-08-22T21:05:13.547Z,71.20
2022-08-22T21:07:46.399Z,71.40
2022-08-22T21:10:44.690Z,71.40
2022-08-22T21:13:25.232Z,71.90
2022-08-22T21:15:57.648Z,72.00
2022-08-22T21:18:41.307Z,72.00
2022-08-22T21:21:29.742Z,72.40
2022-08-22T21:24:00.777Z,72.40
2022-08-22T21:26:39.744Z,72.50
2022-08-22T21:29:17.823Z,73.20
2022-08-22T21:32:13.492Z,71.90
2022-08-22T21:34:47.143Z,70.60
2022-08-22T21:37:23.990Z,70.10
2022-08-22T21:39:56.979Z,69.80
2022-08-22T21:42:37.709Z,69.00
2022-08-22T21:45:26.537Z,68.60
2022-08-22T21:47:52.864Z,68.10
2022-08-22T21:50:24.596Z,68.10
2022-08-22T21:52:54.270Z,68.20
2022-08-22T21:55:36.916Z,68.30
2022-08-22T21:58:05.836Z,68.40
2022-08-22T22:00:49.413Z,68.70
2022-08-22T22:03:22.290Z,68.90
2022-08-22T22:05:50.323Z,68.70
2022-08-22T22:08:18.762Z,68.80
2022-08-22T22:10:46.623Z,69.10
2022-08-22T22:13:13.891Z,69.10
2022-08-22T22:15:46.297Z,69.00
2022-08-22T22:18:15.395Z,69.00
2022-08-22T22:20:43.511Z,69.20
2022-08-22T22:23:10.317Z,69.70
2022-08-22T22:25:42.003Z,69.70
2022-08-22T22:28:18.121Z,70.00
2022-08-22T22:30:49.765Z,70.20
2022-08-22T22:33:18.362Z,70.30
2022-08-22T22:35:44.600Z,70.50
2022-08-22T22:38:12.553Z,70.60
2022-08-22T22:40:38.736Z,70.90
2022-08-22T22:43:05.116Z,71.30
2022-08-22T22:45:32.437Z,71.70
2022-08-22T22:47:59.139Z,72.20
2022-08-22T22:50:25.861Z,72.60
2022-08-22T22:52:54.173Z,73.10
2022-08-22T22:55:24.453Z,73.60
2022-08-22T22:57:59.049Z,73.80
2022-08-22T23:00:31.026Z,74.00
2022-08-22T23:03:00.087Z,74.40
2022-08-22T23:05:26.820Z,74.40
2022-08-22T23:07:52.955Z,74.80
2022-08-22T23:10:22.069Z,75.10
2022-08-22T23:12:48.597Z,75.00
2022-08-22T23:15:14.897Z,75.10
2022-08-22T23:17:42.174Z,75.10
2022-08-22T23:20:08.594Z,75.10
2022-08-22T23:22:34.744Z,75.30
2022-08-22T23:25:01.039Z,75.50
2022-08-22T23:27:27.158Z,75.70
2022-08-22T23:29:53.344Z,75.70
2022-08-22T23:32:19.610Z,75.80
2022-08-22T23:34:48.246Z,76.10
2022-08-22T23:37:16.967Z,76.40
2022-08-22T23:39:44.042Z,76.30
2022-08-22T23:42:11.816Z,76.30
2022-08-22T23:44:40.117Z,76.30
2022-08-22T23:47:07.632Z,76.10
2022-08-22T23:49:35.421Z,76.10
2022-08-22T23:52:02.412Z,76.00
2022-08-22T23:54:28.818Z,76.30
2022-08-22T23:56:58.056Z,76.30
2022-08-22T23:59:30.905Z,76.50
